首页
METAR-TAF:

METAR-TAF

机场 :

朱瓦塔国际机场

塔拉卡恩, 印度尼西亚

纬度: 03-19-36N, 经度: 117-33-56E, 海拔: 6米

当前天气观测

该预报发布于31分钟前的11:00 UTC
风速2节,风向
温度 28°C
湿度 79%
气压 1009 hPa

METAR: WAQQ 181100Z 09002KT 8000FEW015 28/24 Q1009

时间: 18:31 (11:31 UTC)

预报

该预报发布于6小时和31分钟前的05:00 UTC
预报有效从18日的 06点(UTC)到 18日的 18点(UTC)
风速6节,风向西转西北
能见度10公里或以上

TAF: WAQQ 180500Z 1806/1818 30006KT 9999 ?SCT015

超过4000个机场的气象观测和天气预报(METAR&TAF报告)。

可查询的气象台以黄色和红色小点在地图上表示。

将鼠标移到小点上方,可查看气象台名称。

然后点击查看天气观测和预报。

如需切换地图:点击带黑十字的绿色按钮放大地图;点击带横线的绿色按钮缩小地图;或者点击绿色箭头查看邻近地区的地图。


METAR-TAF: